Time;durP1;ratioP1;P1;durP2;ratioP2;P2;SDS_P1;SDS_P2;PMS_P1;PMS_P2;Temp;Humidity;BMP_temperature;BMP_pressure;BME280_temperature;BME280_humidity;BME280_pressure;Samples;Min_cycle;Max_cycle;Signal;HPM_P1;HPM_P2
2022/10/16 00:01:23;;;;;;;4.03;2.00;;;13.00;99.90;;;;;;5085065;28;20016;-58
2022/10/16 00:03:50;;;;;;;4.90;2.15;;;13.00;99.90;;;;;;5075991;28;20814;-59
2022/10/16 00:06:17;;;;;;;2.78;2.00;;;13.00;99.90;;;;;;5085083;28;20483;-57
2022/10/16 00:08:43;;;;;;;3.47;1.85;;;13.00;99.90;;;;;;5076558;28;20040;-58
2022/10/16 00:11:15;;;;;;;4.20;2.20;;;12.90;99.90;;;;;;5086744;28;20035;-54
2022/10/16 00:13:43;;;;;;;3.35;2.10;;;12.90;99.90;;;;;;5075239;28;20024;-59
2022/10/16 00:16:10;;;;;;;2.60;2.30;;;12.90;99.90;;;;;;5087564;28;20046;-58
2022/10/16 00:18:37;;;;;;;2.90;2.22;;;12.90;99.90;;;;;;5074761;28;20048;-56
2022/10/16 00:21:08;;;;;;;2.83;2.00;;;12.80;99.90;;;;;;5087084;28;20479;-59
2022/10/16 00:23:34;;;;;;;3.17;2.20;;;12.80;99.90;;;;;;5074849;28;20365;-59
2022/10/16 00:26:03;;;;;;;3.30;1.90;;;12.80;99.90;;;;;;5086828;28;20020;-55
2022/10/16 00:28:29;;;;;;;3.83;2.00;;;12.80;99.90;;;;;;5074466;28;20094;-59
2022/10/16 00:30:55;;;;;;;2.75;2.00;;;12.90;99.90;;;;;;5086548;28;20103;-56
2022/10/16 00:33:22;;;;;;;1.50;1.40;;;12.90;99.90;;;;;;5077610;28;20112;-59
2022/10/16 00:35:48;;;;;;;2.28;1.63;;;12.90;99.90;;;;;;5082470;28;20032;-59
2022/10/16 00:38:13;;;;;;;3.10;1.60;;;12.90;99.90;;;;;;5079798;28;20066;-59
2022/10/16 00:40:40;;;;;;;1.75;1.60;;;12.90;99.90;;;;;;5080663;28;20399;-55
2022/10/16 00:43:33;;;;;;;2.25;1.60;;;12.90;99.90;;;;;;5083639;28;20024;-59
2022/10/16 00:46:03;;;;;;;2.03;1.70;;;12.80;99.90;;;;;;5087485;28;20139;-59
2022/10/16 00:48:30;;;;;;;3.45;1.80;;;12.80;99.90;;;;;;5078361;28;20729;-58
2022/10/16 00:50:57;;;;;;;2.88;1.92;;;12.80;99.90;;;;;;5073286;28;20032;-59
2022/10/16 00:53:25;;;;;;;4.28;1.70;;;12.70;99.90;;;;;;5069771;28;20032;-60
2022/10/16 00:55:51;;;;;;;3.22;1.88;;;12.80;99.90;;;;;;5075141;28;20017;-55
2022/10/16 00:58:16;;;;;;;4.63;2.33;;;12.80;99.90;;;;;;5067239;28;20021;-56
2022/10/16 01:00:42;;;;;;;2.80;1.58;;;12.80;99.90;;;;;;5078049;28;20027;-58
2022/10/16 01:03:32;;;;;;;3.42;1.60;;;12.80;99.90;;;;;;5066277;28;20062;-58
2022/10/16 01:06:23;;;;;;;2.55;1.73;;;12.80;99.90;;;;;;5076053;28;20151;-56
2022/10/16 01:08:58;;;;;;;2.53;1.80;;;12.80;99.90;;;;;;5084065;28;20036;-57
2022/10/16 01:11:49;;;;;;;4.57;1.90;;;12.80;99.90;;;;;;5076178;28;20542;-58
2022/10/16 01:14:26;;;;;;;2.45;1.83;;;12.80;99.90;;;;;;5080642;28;20075;-58
2022/10/16 01:17:02;;;;;;;2.53;2.03;;;12.90;99.90;;;;;;5079442;28;20107;-59
2022/10/16 01:19:46;;;;;;;4.60;2.00;;;12.90;99.90;;;;;;5080523;28;20028;-55
2022/10/16 01:22:12;;;;;;;2.05;1.77;;;12.90;99.90;;;;;;5080537;28;20738;-59
2022/10/16 01:24:45;;;;;;;2.67;1.70;;;13.00;99.90;;;;;;5079844;28;20063;-56
2022/10/16 01:27:27;;;;;;;2.35;1.60;;;13.00;99.90;;;;;;5078908;28;20036;-58
2022/10/16 01:30:07;;;;;;;4.53;2.28;;;13.00;99.90;;;;;;5080941;28;20036;-59
2022/10/16 01:32:43;;;;;;;3.15;2.08;;;13.00;99.90;;;;;;5080926;28;20028;-60
2022/10/16 01:35:14;;;;;;;3.15;1.98;;;13.10;99.90;;;;;;5078984;28;20063;-60
2022/10/16 01:37:54;;;;;;;2.53;1.98;;;13.10;99.90;;;;;;5081152;28;20086;-58
2022/10/16 01:40:21;;;;;;;3.65;1.80;;;13.10;99.90;;;;;;5078140;28;20025;-56
2022/10/16 01:42:58;;;;;;;2.60;2.17;;;13.10;99.90;;;;;;5080591;28;20024;-59
2022/10/16 01:45:24;;;;;;;3.63;2.20;;;13.10;99.90;;;;;;5070557;28;20028;-59
2022/10/16 01:47:51;;;;;;;2.83;2.05;;;13.10;99.90;;;;;;5072806;28;20047;-59
2022/10/16 01:50:20;;;;;;;2.88;1.75;;;13.10;99.90;;;;;;5068138;28;20491;-57
2022/10/16 01:52:50;;;;;;;2.47;1.88;;;13.10;99.90;;;;;;5073003;28;20036;-56
2022/10/16 01:55:22;;;;;;;2.20;1.70;;;13.20;99.90;;;;;;5066398;28;20023;-56
2022/10/16 01:57:51;;;;;;;2.17;1.98;;;13.20;99.90;;;;;;5075393;28;20380;-59
2022/10/16 02:00:19;;;;;;;1.60;1.50;;;13.20;99.90;;;;;;5065471;28;20067;-58
2022/10/16 02:02:49;;;;;;;4.22;1.80;;;13.30;99.90;;;;;;5076950;28;20024;-57
2022/10/16 02:05:45;;;;;;;2.90;1.88;;;13.30;99.90;;;;;;5065714;28;20488;-57
2022/10/16 02:08:11;;;;;;;2.53;2.10;;;13.30;99.90;;;;;;5075038;28;20051;-59
2022/10/16 02:10:37;;;;;;;2.00;1.80;;;13.20;99.90;;;;;;5084100;28;20016;-58
2022/10/16 02:13:17;;;;;;;2.10;1.90;;;13.20;99.90;;;;;;5073795;28;20083;-53
2022/10/16 02:15:43;;;;;;;2.88;1.85;;;13.30;99.90;;;;;;5083366;28;20027;-54
2022/10/16 02:18:10;;;;;;;1.88;1.65;;;13.20;99.90;;;;;;5073576;28;20036;-55
2022/10/16 02:20:57;;;;;;;3.60;1.88;;;13.30;99.90;;;;;;5083296;28;20035;-58
2022/10/16 02:23:37;;;;;;;4.07;2.22;;;13.30;99.90;;;;;;5075594;28;20085;-56
2022/10/16 02:26:07;;;;;;;2.85;1.70;;;13.30;99.90;;;;;;5066353;28;20024;-58
2022/10/16 02:28:51;;;;;;;1.65;1.55;;;13.30;99.90;;;;;;5075124;28;20124;-56
2022/10/16 02:31:24;;;;;;;2.47;1.63;;;13.20;99.90;;;;;;5065377;28;20094;-57
2022/10/16 02:33:52;;;;;;;1.80;1.50;;;13.20;99.90;;;;;;5073501;28;20111;-54
2022/10/16 02:36:18;;;;;;;1.50;1.30;;;13.20;99.90;;;;;;5069185;28;20024;-58
2022/10/16 02:38:44;;;;;;;2.75;1.60;;;13.10;99.90;;;;;;5073225;28;20054;-56
2022/10/16 02:41:10;;;;;;;2.83;1.60;;;13.10;99.90;;;;;;5082602;28;20031;-55
2022/10/16 02:43:35;;;;;;;3.08;1.65;;;13.10;99.90;;;;;;5069209;28;20112;-58
2022/10/16 02:46:01;;;;;;;3.35;1.63;;;13.10;99.90;;;;;;5064661;28;20024;-59
2022/10/16 02:48:26;;;;;;;3.03;1.70;;;13.10;99.90;;;;;;5075695;28;20043;-58
2022/10/16 02:50:52;;;;;;;1.80;1.70;;;13.10;99.90;;;;;;5064551;28;20063;-59
2022/10/16 02:53:17;;;;;;;1.88;1.40;;;13.10;99.90;;;;;;5074688;28;20028;-59
2022/10/16 02:55:43;;;;;;;2.67;1.65;;;13.10;99.90;;;;;;5064716;28;20430;-59
2022/10/16 02:58:09;;;;;;;1.85;1.50;;;13.00;99.90;;;;;;5072169;28;20532;-58
2022/10/16 03:00:34;;;;;;;1.75;1.65;;;13.00;99.90;;;;;;5068093;28;20035;-59
2022/10/16 03:03:00;;;;;;;3.00;1.60;;;13.00;99.90;;;;;;5069389;28;20028;-57
2022/10/16 03:05:25;;;;;;;2.45;1.60;;;13.00;99.90;;;;;;5069732;28;20032;-59
2022/10/16 03:07:52;;;;;;;3.90;1.75;;;13.10;99.90;;;;;;5067306;28;20032;-55
2022/10/16 03:10:18;;;;;;;2.95;1.70;;;13.10;99.90;;;;;;5072054;28;20044;-59
2022/10/16 03:12:43;;;;;;;1.67;1.50;;;13.10;99.90;;;;;;5065669;28;20067;-59
2022/10/16 03:15:09;;;;;;;1.80;1.60;;;13.20;99.90;;;;;;5075094;28;20535;-58
2022/10/16 03:17:34;;;;;;;2.17;1.60;;;13.20;99.90;;;;;;5064449;28;20032;-59
2022/10/16 03:20:00;;;;;;;1.98;1.40;;;13.20;99.90;;;;;;5075309;28;20467;-59
2022/10/16 03:22:25;;;;;;;2.05;1.40;;;13.20;99.90;;;;;;5063363;28;20039;-55
2022/10/16 03:24:51;;;;;;;1.60;1.50;;;13.20;99.90;;;;;;5075562;28;20028;-57
2022/10/16 03:27:17;;;;;;;4.10;1.60;;;13.10;99.90;;;;;;5063377;28;20487;-59
2022/10/16 03:29:42;;;;;;;1.70;1.42;;;13.10;99.90;;;;;;5076368;28;20047;-59
2022/10/16 03:32:08;;;;;;;1.90;1.25;;;13.10;99.90;;;;;;5063024;28;20031;-58
2022/10/16 03:34:33;;;;;;;1.33;1.23;;;13.10;99.90;;;;;;5074551;28;20024;-59
2022/10/16 03:36:59;;;;;;;1.60;1.20;;;13.00;99.90;;;;;;5065793;28;20044;-59
2022/10/16 03:39:34;;;;;;;2.33;1.48;;;13.10;99.90;;;;;;5070496;28;20467;-59
2022/10/16 03:41:59;;;;;;;3.25;1.60;;;13.00;99.90;;;;;;5067193;28;20051;-58
2022/10/16 03:44:25;;;;;;;1.55;1.20;;;13.00;99.90;;;;;;5069208;28;20518;-58
2022/10/16 03:46:50;;;;;;;1.63;1.17;;;13.00;99.90;;;;;;5069746;28;20036;-57
2022/10/16 03:49:16;;;;;;;2.15;1.42;;;13.10;99.90;;;;;;5067017;28;20074;-57
2022/10/16 03:51:41;;;;;;;2.05;1.30;;;13.10;99.90;;;;;;5071692;28;20878;-58
2022/10/16 03:54:07;;;;;;;3.20;1.33;;;13.10;99.90;;;;;;5068043;28;20023;-57
2022/10/16 03:56:32;;;;;;;1.65;1.30;;;13.10;99.90;;;;;;5072801;28;20454;-59
2022/10/16 03:58:58;;;;;;;1.95;1.40;;;13.10;99.90;;;;;;5081855;28;20031;-58
2022/10/16 04:01:24;;;;;;;2.65;1.25;;;13.10;99.90;;;;;;5072321;28;20036;-58
2022/10/16 04:03:50;;;;;;;1.92;1.52;;;13.10;99.90;;;;;;5084121;28;20024;-57
2022/10/16 04:06:15;;;;;;;2.03;1.50;;;13.10;99.90;;;;;;5070041;28;20019;-59
2022/10/16 04:08:43;;;;;;;2.13;1.35;;;13.10;99.90;;;;;;5084033;28;20123;-58
2022/10/16 04:11:09;;;;;;;1.55;1.30;;;13.10;99.90;;;;;;5077416;28;21031;-58
2022/10/16 04:13:34;;;;;;;2.17;1.50;;;13.00;99.90;;;;;;5062778;28;20024;-59
2022/10/16 04:16:00;;;;;;;2.08;1.67;;;13.00;99.90;;;;;;5074096;28;20020;-58
2022/10/16 04:18:27;;;;;;;1.60;1.50;;;13.00;99.90;;;;;;5064268;28;20032;-59
2022/10/16 04:20:53;;;;;;;2.85;1.55;;;13.10;99.90;;;;;;5070960;28;20020;-59
2022/10/16 04:23:18;;;;;;;4.53;1.60;;;13.10;99.90;;;;;;5067033;28;20028;-58
2022/10/16 04:25:44;;;;;;;1.65;1.50;;;13.10;99.90;;;;;;5069756;28;20017;-58
2022/10/16 04:28:09;;;;;;;1.70;1.40;;;13.10;99.90;;;;;;5068843;28;20055;-54
2022/10/16 04:30:37;;;;;;;1.92;1.40;;;13.20;99.90;;;;;;5066785;28;20035;-58
2022/10/16 04:33:02;;;;;;;1.83;1.48;;;13.20;99.90;;;;;;5072925;28;20078;-57
2022/10/16 04:35:28;;;;;;;1.63;1.30;;;13.20;99.90;;;;;;5063841;28;20017;-58
2022/10/16 04:37:53;;;;;;;1.45;1.33;;;13.20;99.90;;;;;;5074670;28;20617;-59
2022/10/16 04:40:19;;;;;;;1.65;1.38;;;13.20;99.90;;;;;;5063889;28;20533;-59
2022/10/16 04:42:44;;;;;;;2.42;1.50;;;13.20;99.90;;;;;;5073480;28;20052;-58
2022/10/16 04:45:10;;;;;;;2.47;1.60;;;13.20;99.90;;;;;;5079164;28;20166;-60
2022/10/16 04:47:36;;;;;;;3.75;1.60;;;13.20;99.90;;;;;;5073009;28;20036;-60
2022/10/16 04:50:04;;;;;;;2.33;1.30;;;13.20;99.90;;;;;;5086742;28;20024;-59
2022/10/16 04:52:31;;;;;;;1.70;1.30;;;13.10;99.90;;;;;;5073244;28;20115;-59
2022/10/16 04:55:00;;;;;;;2.53;1.15;;;13.10;99.90;;;;;;5086118;28;20859;-60
2022/10/16 04:57:26;;;;;;;2.40;1.40;;;13.10;99.90;;;;;;5074572;28;20020;-56
2022/10/16 04:59:52;;;;;;;2.08;1.50;;;13.10;99.90;;;;;;5085589;28;20028;-59
2022/10/16 05:02:20;;;;;;;1.50;1.40;;;13.10;99.90;;;;;;5076771;28;20442;-59
2022/10/16 05:04:46;;;;;;;1.23;1.08;;;13.10;99.90;;;;;;5083473;28;20027;-60
2022/10/16 05:07:11;;;;;;;1.95;1.58;;;13.10;99.90;;;;;;5079010;28;20036;-59
2022/10/16 05:09:39;;;;;;;1.25;1.15;;;13.10;99.90;;;;;;5080091;28;20071;-57
2022/10/16 05:12:05;;;;;;;1.98;1.35;;;13.10;99.90;;;;;;5081889;28;20150;-59
2022/10/16 05:14:31;;;;;;;1.20;1.10;;;13.00;99.90;;;;;;5077369;28;20828;-58
2022/10/16 05:16:56;;;;;;;1.33;1.13;;;13.00;99.90;;;;;;5084582;28;20111;-58
2022/10/16 05:19:22;;;;;;;1.60;1.27;;;13.00;99.90;;;;;;5074522;28;20073;-57
2022/10/16 05:21:47;;;;;;;2.53;1.20;;;13.00;99.90;;;;;;5085389;28;20031;-59
2022/10/16 05:24:13;;;;;;;1.65;1.10;;;12.90;99.90;;;;;;5073889;28;20024;-58
2022/10/16 05:26:38;;;;;;;1.65;1.30;;;12.90;99.90;;;;;;5086260;28;20935;-57
2022/10/16 05:29:04;;;;;;;1.75;1.17;;;12.80;99.90;;;;;;5074370;28;20528;-58
2022/10/16 05:31:29;;;;;;;1.90;1.30;;;12.80;99.90;;;;;;5084841;28;20036;-57
2022/10/16 05:33:59;;;;;;;1.30;1.20;;;12.80;99.90;;;;;;5072990;28;20032;-56
2022/10/16 05:36:28;;;;;;;1.67;1.30;;;12.70;99.90;;;;;;5085465;28;20538;-58
2022/10/16 05:38:53;;;;;;;1.30;1.20;;;12.70;99.90;;;;;;5073152;28;20032;-55
2022/10/16 05:41:21;;;;;;;2.55;1.20;;;12.70;99.90;;;;;;5084935;28;20077;-60
2022/10/16 05:43:47;;;;;;;2.08;1.30;;;12.60;99.90;;;;;;5079806;28;20024;-57
2022/10/16 05:46:13;;;;;;;1.52;1.40;;;12.60;99.90;;;;;;5085273;28;20016;-58
2022/10/16 05:48:38;;;;;;;1.80;1.20;;;12.60;99.90;;;;;;5078543;28;20416;-57
2022/10/16 05:51:06;;;;;;;5.60;1.50;;;12.60;99.90;;;;;;5079694;28;20028;-59
2022/10/16 05:53:34;;;;;;;1.73;1.48;;;12.50;99.90;;;;;;5080951;28;20072;-58
2022/10/16 05:56:00;;;;;;;1.60;1.30;;;12.50;99.90;;;;;;5077673;28;20463;-56
2022/10/16 05:58:29;;;;;;;1.98;1.48;;;12.50;99.90;;;;;;5081888;28;20042;-57
2022/10/16 06:00:56;;;;;;;2.00;1.50;;;12.50;99.90;;;;;;5076231;28;20031;-57
2022/10/16 06:03:22;;;;;;;1.70;1.60;;;12.50;99.90;;;;;;5083722;28;20085;-58
2022/10/16 06:05:48;;;;;;;3.78;1.90;;;12.50;99.90;;;;;;5073876;28;20017;-58
2022/10/16 06:08:13;;;;;;;1.60;1.50;;;12.50;99.90;;;;;;5083461;28;20494;-59
2022/10/16 06:10:39;;;;;;;3.00;1.42;;;12.40;99.90;;;;;;5073924;28;20031;-58
2022/10/16 06:13:04;;;;;;;3.70;1.48;;;12.50;99.90;;;;;;5085112;28;20039;-59
2022/10/16 06:15:30;;;;;;;1.55;1.30;;;12.50;99.90;;;;;;5072221;28;20051;-56
2022/10/16 06:17:55;;;;;;;3.28;1.50;;;12.50;99.90;;;;;;5085153;28;20028;-58
2022/10/16 06:20:21;;;;;;;1.20;1.10;;;12.50;99.90;;;;;;5070699;28;20122;-60
2022/10/16 06:22:46;;;;;;;1.98;1.23;;;12.60;99.90;;;;;;5085313;28;20566;-57
2022/10/16 06:25:12;;;;;;;1.92;1.20;;;12.60;99.90;;;;;;5074410;28;20028;-58
2022/10/16 06:27:40;;;;;;;1.50;1.40;;;12.70;99.90;;;;;;5081641;28;20044;-59
2022/10/16 06:30:06;;;;;;;2.38;1.50;;;12.70;99.90;;;;;;5077059;28;20031;-58
2022/10/16 06:32:32;;;;;;;1.40;1.30;;;12.80;99.90;;;;;;5079516;28;20085;-58
2022/10/16 06:34:57;;;;;;;2.22;1.50;;;12.80;99.90;;;;;;5078687;28;20024;-56
2022/10/16 06:37:24;;;;;;;1.92;1.35;;;12.80;99.90;;;;;;5077103;28;20028;-59
2022/10/16 06:39:52;;;;;;;2.22;1.30;;;12.80;99.90;;;;;;5082499;28;20031;-58
2022/10/16 06:42:17;;;;;;;1.80;1.60;;;12.90;99.90;;;;;;5074200;28;20028;-58
2022/10/16 06:44:43;;;;;;;2.97;1.55;;;12.90;99.90;;;;;;5080453;28;20032;-59
2022/10/16 06:47:09;;;;;;;1.83;1.45;;;13.00;99.90;;;;;;5077184;28;20135;-60
2022/10/16 06:49:35;;;;;;;1.58;1.42;;;13.00;99.90;;;;;;5082776;28;20081;-56
2022/10/16 06:52:01;;;;;;;1.65;1.50;;;13.00;99.90;;;;;;5073313;28;20415;-55
2022/10/16 06:54:27;;;;;;;2.40;1.50;;;13.10;99.90;;;;;;5081310;28;20024;-54
2022/10/16 06:56:54;;;;;;;1.50;1.40;;;13.10;99.90;;;;;;5070727;28;20081;-53
2022/10/16 06:59:20;;;;;;;1.50;1.30;;;13.20;99.90;;;;;;5083259;28;20027;-56
2022/10/16 07:01:45;;;;;;;1.65;1.50;;;13.20;99.90;;;;;;5071038;28;20027;-57
2022/10/16 07:04:11;;;;;;;1.50;1.40;;;13.30;99.90;;;;;;5083431;28;20024;-57
2022/10/16 07:06:36;;;;;;;1.77;1.48;;;13.30;99.90;;;;;;5073549;28;20495;-54
2022/10/16 07:09:05;;;;;;;3.30;1.60;;;13.30;99.90;;;;;;5080080;28;20023;-52
2022/10/16 07:11:31;;;;;;;2.15;1.67;;;13.40;99.90;;;;;;5075658;28;20020;-53
2022/10/16 07:13:57;;;;;;;2.00;1.42;;;13.40;99.90;;;;;;5079028;28;20024;-55
2022/10/16 07:16:33;;;;;;;1.75;1.45;;;13.40;99.90;;;;;;5076907;28;20086;-57
2022/10/16 07:19:01;;;;;;;3.03;1.40;;;13.50;99.90;;;;;;5077693;28;20048;-54
2022/10/16 07:21:28;;;;;;;2.60;1.40;;;13.50;99.90;;;;;;5077735;28;20380;-54
2022/10/16 07:23:57;;;;;;;1.83;1.30;;;13.60;99.90;;;;;;5074607;28;20512;-53
2022/10/16 07:26:25;;;;;;;1.67;1.50;;;13.60;99.90;;;;;;5080107;28;20067;-52
2022/10/16 07:28:50;;;;;;;2.20;1.30;;;13.60;99.90;;;;;;5073487;28;20036;-57
2022/10/16 07:31:17;;;;;;;3.08;1.30;;;13.70;99.90;;;;;;5062746;28;20052;-55
2022/10/16 07:33:45;;;;;;;2.10;1.50;;;13.70;99.90;;;;;;5072340;28;20026;-55
2022/10/16 07:36:11;;;;;;;1.70;1.50;;;13.70;99.90;;;;;;5081597;28;20024;-53
2022/10/16 07:38:38;;;;;;;1.70;1.60;;;13.80;99.90;;;;;;5070822;28;20082;-53
2022/10/16 07:41:05;;;;;;;1.90;1.40;;;13.90;99.90;;;;;;5083685;28;20632;-54
2022/10/16 07:43:31;;;;;;;2.67;1.63;;;13.90;99.90;;;;;;5074904;28;20025;-57
2022/10/16 07:45:57;;;;;;;2.30;1.40;;;14.00;99.90;;;;;;5083507;28;20043;-55
2022/10/16 07:48:26;;;;;;;2.55;1.50;;;14.10;99.90;;;;;;5069746;28;20024;-55
2022/10/16 07:50:51;;;;;;;2.85;1.45;;;14.10;99.90;;;;;;5082565;28;20028;-53
2022/10/16 07:53:17;;;;;;;1.63;1.50;;;14.20;99.90;;;;;;5071075;28;20115;-55
2022/10/16 07:55:42;;;;;;;1.70;1.45;;;14.20;99.90;;;;;;5082446;28;20020;-51
2022/10/16 07:58:08;;;;;;;1.73;1.63;;;14.30;99.90;;;;;;5072827;28;20021;-57
2022/10/16 08:00:35;;;;;;;2.58;1.40;;;14.40;99.90;;;;;;5079108;28;20024;-56
2022/10/16 08:03:01;;;;;;;2.70;1.58;;;14.40;99.90;;;;;;5076978;28;20032;-55
2022/10/16 08:05:27;;;;;;;2.67;1.70;;;14.50;99.90;;;;;;5075621;28;20059;-58
2022/10/16 08:07:53;;;;;;;1.95;1.63;;;14.60;99.90;;;;;;5079171;28;20036;-57
2022/10/16 08:10:21;;;;;;;2.25;1.38;;;14.70;99.90;;;;;;5073898;28;20023;-56
2022/10/16 08:12:46;;;;;;;2.25;1.55;;;14.80;99.90;;;;;;5080755;28;20028;-55
2022/10/16 08:15:12;;;;;;;4.63;2.08;;;14.90;99.90;;;;;;5071282;28;20077;-55
2022/10/16 08:17:38;;;;;;;4.93;1.70;;;14.80;99.90;;;;;;5081990;28;20043;-52
2022/10/16 08:20:04;;;;;;;3.33;1.40;;;14.90;99.90;;;;;;5071738;28;20367;-53
2022/10/16 08:22:32;;;;;;;3.40;1.98;;;15.00;99.90;;;;;;5086096;28;20419;-55
2022/10/16 08:24:58;;;;;;;2.42;1.30;;;15.10;99.90;;;;;;5074003;28;20119;-53
2022/10/16 08:27:23;;;;;;;1.83;1.48;;;15.20;99.90;;;;;;5085510;28;20063;-53
2022/10/16 08:29:52;;;;;;;3.90;1.50;;;15.20;99.90;;;;;;5074312;28;20124;-57
2022/10/16 08:32:17;;;;;;;2.47;1.58;;;15.20;99.90;;;;;;5086737;28;20038;-51
2022/10/16 08:34:43;;;;;;;2.05;1.77;;;15.20;99.90;;;;;;5073658;28;20428;-55
2022/10/16 08:37:14;;;;;;;2.92;1.60;;;15.20;99.90;;;;;;5085217;28;20122;-53
2022/10/16 08:39:42;;;;;;;3.58;1.40;;;15.10;99.90;;;;;;5076554;28;20031;-56
2022/10/16 08:42:22;;;;;;;2.13;1.63;;;15.10;99.90;;;;;;5083562;28;20016;-54
2022/10/16 08:45:23;;;;;;;3.15;1.60;;;15.10;99.90;;;;;;5074395;28;20071;-52
2022/10/16 08:48:27;;;;;;;1.80;1.40;;;15.00;99.90;;;;;;5065809;28;20089;-57
2022/10/16 08:50:53;;;;;;;3.45;1.60;;;15.00;99.90;;;;;;5073502;28;20567;-57
2022/10/16 08:53:46;;;;;;;4.45;1.45;;;15.00;99.90;;;;;;5085567;28;20271;-54
2022/10/16 08:56:11;;;;;;;2.05;1.33;;;14.90;99.90;;;;;;5073675;28;20877;-55
2022/10/16 08:58:37;;;;;;;2.20;1.35;;;15.00;99.90;;;;;;5085889;28;20028;-54
2022/10/16 09:01:13;;;;;;;3.50;1.65;;;15.00;99.90;;;;;;5072487;28;20050;-56
2022/10/16 09:03:53;;;;;;;2.72;1.77;;;15.00;99.90;;;;;;5085839;28;20027;-57
2022/10/16 09:06:46;;;;;;;2.30;1.52;;;15.00;99.90;;;;;;5072561;28;20546;-57
2022/10/16 09:09:43;;;;;;;2.22;1.27;;;15.00;99.90;;;;;;5083663;28;20028;-57
2022/10/16 09:12:40;;;;;;;3.58;1.50;;;15.10;99.90;;;;;;5074813;28;20065;-54
2022/10/16 09:15:27;;;;;;;2.55;1.55;;;15.10;99.90;;;;;;5081623;28;20275;-58
2022/10/16 09:18:10;;;;;;;3.22;1.38;;;15.10;99.90;;;;;;5080120;28;20028;-56
2022/10/16 09:20:54;;;;;;;;;;;15.10;99.90;;;;;;5079823;28;20032;-56
2022/10/16 09:23:33;;;;;;;3.78;1.40;;;15.10;99.90;;;;;;5081124;28;19935;-56
2022/10/16 09:25:59;;;;;;;2.53;1.00;;;15.10;99.90;;;;;;5078675;28;20425;-57
2022/10/16 09:28:24;;;;;;;3.30;1.40;;;15.10;99.90;;;;;;5081528;28;20051;-50
2022/10/16 09:30:50;;;;;;;4.40;1.58;;;15.20;99.90;;;;;;5080129;28;20025;-53
2022/10/16 09:33:18;;;;;;;2.80;1.40;;;15.20;99.90;;;;;;5077429;28;20426;-55
2022/10/16 09:35:46;;;;;;;4.25;1.50;;;15.30;99.90;;;;;;5081243;28;20012;-54
2022/10/16 09:38:30;;;;;;;5.55;1.50;;;15.30;99.90;;;;;;5074308;28;20063;-51
2022/10/16 09:40:58;;;;;;;2.38;1.27;;;15.40;99.90;;;;;;5068890;28;20027;-55
2022/10/16 09:43:49;;;;;;;2.05;1.20;;;15.50;99.90;;;;;;5073960;28;20268;-51
2022/10/16 09:46:29;;;;;;;2.70;1.40;;;15.50;99.90;;;;;;5069229;28;20024;-54
2022/10/16 09:48:58;;;;;;;3.67;1.33;;;15.50;99.90;;;;;;5071395;28;20041;-53
2022/10/16 09:51:28;;;;;;;3.20;1.48;;;15.50;99.90;;;;;;5068826;28;20035;-52
2022/10/16 09:54:02;;;;;;;1.83;1.20;;;15.50;99.90;;;;;;5072989;28;20029;-53
2022/10/16 09:56:32;;;;;;;2.30;1.13;;;15.60;99.90;;;;;;5067837;28;20186;-52
2022/10/16 09:59:02;;;;;;;4.05;1.33;;;15.60;99.90;;;;;;5073606;28;20032;-52
2022/10/16 10:01:41;;;;;;;3.70;1.30;;;15.70;99.90;;;;;;5066402;28;20017;-52
2022/10/16 10:04:07;;;;;;;2.92;1.33;;;15.70;99.90;;;;;;5073963;28;20036;-49
2022/10/16 10:06:41;;;;;;;2.67;1.42;;;15.70;99.90;;;;;;5066366;28;20552;-51
2022/10/16 10:09:20;;;;;;;3.58;1.52;;;15.70;99.90;;;;;;5074906;28;20100;-51
2022/10/16 10:11:50;;;;;;;2.75;1.42;;;15.80;99.90;;;;;;5082897;28;20042;-54
2022/10/16 10:14:52;;;;;;;2.25;1.40;;;15.80;99.90;;;;;;5073566;28;20410;-56
2022/10/16 10:17:28;;;;;;;4.88;1.50;;;15.90;99.90;;;;;;4977327;28;20085;-53
2022/10/16 10:20:20;;;;;;;4.40;1.55;;;16.00;99.90;;;;;;5064218;28;20048;-55
2022/10/16 10:22:46;;;;;;;3.75;1.30;;;16.00;99.90;;;;;;5077183;28;20395;-52
2022/10/16 10:25:12;;;;;;;4.88;1.38;;;16.10;99.90;;;;;;5077986;28;20478;-49
2022/10/16 10:28:08;;;;;;;6.28;1.40;;;16.10;99.90;;;;;;5080804;28;20068;-59
2022/10/16 10:30:55;;;;;;;8.00;1.60;;;16.20;99.90;;;;;;5082004;28;20024;-53
2022/10/16 10:33:55;;;;;;;5.57;1.40;;;16.30;99.90;;;;;;5074717;28;20036;-53
2022/10/16 10:36:30;;;;;;;4.88;1.30;;;16.30;99.90;;;;;;5063732;28;20032;-55
2022/10/16 10:39:07;;;;;;;7.47;1.30;;;16.40;99.90;;;;;;5076714;28;20051;-51
2022/10/16 10:41:55;;;;;;;6.90;1.80;;;16.50;99.90;;;;;;5064305;28;20032;-56
2022/10/16 10:44:40;;;;;;;7.07;1.95;;;16.60;99.90;;;;;;5076251;28;20021;-53
2022/10/16 10:47:30;;;;;;;6.78;1.60;;;16.60;99.90;;;;;;5083759;28;20699;-51
2022/10/16 10:50:14;;;;;;;4.88;1.40;;;16.70;99.90;;;;;;5072697;28;20032;-54
2022/10/16 10:52:43;;;;;;;7.07;1.50;;;16.70;99.90;;;;;;5083518;28;20028;-55
2022/10/16 10:55:39;;;;;;;5.93;1.65;;;16.90;99.90;;;;;;5074328;28;20036;-54
2022/10/16 10:58:13;;;;;;;2.80;1.10;;;16.90;99.90;;;;;;5065498;28;20069;-56
2022/10/16 11:01:02;;;;;;;4.80;1.40;;;17.00;99.90;;;;;;5074513;28;20028;-56
2022/10/16 11:03:55;;;;;;;11.57;3.67;;;17.00;99.90;;;;;;5065188;28;20024;-55
2022/10/16 11:06:24;;;;;;;6.38;1.70;;;17.10;99.90;;;;;;5076645;28;20123;-50
2022/10/16 11:09:09;;;;;;;4.57;1.55;;;17.10;99.90;;;;;;5081025;28;20050;-50
2022/10/16 11:11:43;;;;;;;4.60;1.55;;;17.20;99.90;;;;;;5077861;28;20093;-53
2022/10/16 11:14:22;;;;;;;5.43;1.48;;;17.20;99.90;;;;;;5079153;28;20638;-55
2022/10/16 11:16:58;;;;;;;4.72;1.10;;;17.20;99.90;;;;;;5076767;28;20032;-53
2022/10/16 11:19:44;;;;;;;4.35;1.27;;;17.20;99.90;;;;;;5079210;28;20379;-56
2022/10/16 11:22:19;;;;;;;3.63;1.30;;;17.20;99.90;;;;;;5076017;28;20521;-57
2022/10/16 11:25:19;;;;;;;6.40;1.52;;;17.20;99.90;;;;;;5077373;28;20042;-56
2022/10/16 11:27:57;;;;;;;6.15;1.70;;;17.20;99.90;;;;;;5082037;28;20060;-56
2022/10/16 11:30:28;;;;;;;4.97;1.70;;;17.20;99.90;;;;;;5072835;28;20525;-56
2022/10/16 11:33:09;;;;;;;4.20;1.45;;;17.30;99.90;;;;;;5082338;28;20079;-53
2022/10/16 11:35:46;;;;;;;2.95;1.02;;;17.30;99.90;;;;;;5073031;28;20503;-53
2022/10/16 11:38:25;;;;;;;4.25;1.20;;;17.40;99.90;;;;;;5082591;28;20038;-57
2022/10/16 11:40:59;;;;;;;5.55;1.38;;;17.40;99.90;;;;;;5072483;28;20805;-57
2022/10/16 11:43:38;;;;;;;5.90;1.42;;;17.50;99.90;;;;;;5082387;28;20198;-54
2022/10/16 11:46:21;;;;;;;4.45;1.35;;;17.50;99.90;;;;;;5071401;28;20586;-56
2022/10/16 11:49:09;;;;;;;6.30;1.40;;;17.60;99.90;;;;;;5063641;28;20032;-56
2022/10/16 11:51:48;;;;;;;6.72;1.48;;;17.60;99.90;;;;;;5075983;28;20028;-56
2022/10/16 11:54:31;;;;;;;4.00;1.40;;;17.60;99.90;;;;;;5063368;28;20029;-56
2022/10/16 11:57:01;;;;;;;6.35;2.35;;;17.70;99.90;;;;;;5079957;28;20020;-55
2022/10/16 11:59:48;;;;;;;5.63;1.73;;;17.70;99.90;;;;;;5067613;28;20082;-56
2022/10/16 12:02:38;;;;;;;5.35;1.33;;;17.80;99.90;;;;;;5074929;28;20089;-55
2022/10/16 12:05:29;;;;;;;4.40;1.13;;;17.80;99.90;;;;;;5086548;28;20502;-54
2022/10/16 12:08:12;;;;;;;5.25;1.85;;;17.90;99.90;;;;;;5079448;28;20119;-54
2022/10/16 12:10:38;;;;;;;;;;;17.90;99.90;;;;;;5069408;28;20078;-54
2022/10/16 12:13:25;;;;;;;6.05;1.80;;;18.00;99.90;;;;;;5078581;28;20268;-55
2022/10/16 12:15:50;;;;;;;6.32;1.13;;;18.00;99.90;;;;;;5068669;28;20116;-54
2022/10/16 12:18:25;;;;;;;7.03;1.70;;;18.00;99.90;;;;;;5077256;28;20113;-55
2022/10/16 12:21:04;;;;;;;3.60;1.20;;;17.90;99.90;;;;;;5068495;28;20024;-56
2022/10/16 12:23:29;;;;;;;5.65;1.40;;;17.90;99.90;;;;;;5078069;28;20100;-56
2022/10/16 12:25:57;;;;;;;8.70;1.60;;;17.80;99.90;;;;;;5067206;28;20059;-49
2022/10/16 12:28:28;;;;;;;4.13;1.20;;;17.80;99.90;;;;;;5077493;28;20055;-52
2022/10/16 12:30:57;;;;;;;4.35;1.48;;;17.80;99.90;;;;;;5067638;28;20028;-54
2022/10/16 12:33:24;;;;;;;4.25;1.50;;;17.80;99.90;;;;;;5077096;28;20051;-50
2022/10/16 12:35:50;;;;;;;4.97;1.10;;;17.80;99.90;;;;;;5067053;28;20341;-55
2022/10/16 12:38:19;;;;;;;4.95;1.13;;;17.70;99.90;;;;;;5078694;28;20078;-54
2022/10/16 12:40:54;;;;;;;5.20;1.75;;;17.60;99.90;;;;;;5066411;28;20074;-52
2022/10/16 12:43:20;;;;;;;6.15;1.67;;;17.60;99.90;;;;;;5078970;28;20368;-50
2022/10/16 12:45:46;;;;;;;6.40;1.48;;;17.60;99.90;;;;;;5082292;28;20063;-48
2022/10/16 12:48:22;;;;;;;4.72;1.20;;;17.70;99.90;;;;;;5082072;28;20523;-55
2022/10/16 12:50:48;;;;;;;9.57;1.30;;;17.70;99.90;;;;;;5066725;28;20416;-55
2022/10/16 12:53:26;;;;;;;5.38;1.23;;;17.70;99.90;;;;;;5076600;28;20341;-53
2022/10/16 12:56:09;;;;;;;3.58;1.27;;;17.70;99.90;;;;;;5066996;28;20060;-55
2022/10/16 12:58:34;;;;;;;6.15;1.45;;;17.80;99.90;;;;;;5070725;28;20024;-56
2022/10/16 13:01:23;;;;;;;4.28;1.40;;;17.70;99.90;;;;;;5085543;28;20028;-55
2022/10/16 13:04:31;;;;;;;6.90;1.20;;;17.70;99.90;;;;;;5073499;28;20059;-55
2022/10/16 13:07:20;;;;;;;4.38;2.30;;;17.70;99.90;;;;;;5054572;28;20109;-55
2022/10/16 13:10:15;;;;;;;5.47;2.28;;;17.70;99.90;;;;;;5076826;28;20425;-54